sensor_id;sensor_type;location;lat;lon;timestamp;P1;durP1;ratioP1;P2;durP2;ratioP2
14799;SDS011;7491;57.750;11.970;2024-02-16T00:01:57;0.70;;;0.70;;
14799;SDS011;7491;57.750;11.970;2024-02-16T00:04:24;1.00;;;0.98;;
14799;SDS011;7491;57.750;11.970;2024-02-16T00:06:50;0.70;;;0.70;;
14799;SDS011;7491;57.750;11.970;2024-02-16T00:09:17;0.90;;;0.90;;
14799;SDS011;7491;57.750;11.970;2024-02-16T00:11:45;1.20;;;0.90;;
14799;SDS011;7491;57.750;11.970;2024-02-16T00:14:13;0.88;;;0.88;;
14799;SDS011;7491;57.750;11.970;2024-02-16T00:16:47;0.80;;;0.80;;
14799;SDS011;7491;57.750;11.970;2024-02-16T00:19:14;0.80;;;0.80;;
14799;SDS011;7491;57.750;11.970;2024-02-16T00:21:41;1.00;;;1.00;;
14799;SDS011;7491;57.750;11.970;2024-02-16T00:24:08;0.90;;;0.73;;
14799;SDS011;7491;57.750;11.970;2024-02-16T00:26:35;0.70;;;0.70;;
14799;SDS011;7491;57.750;11.970;2024-02-16T00:29:06;0.82;;;0.82;;
14799;SDS011;7491;57.750;11.970;2024-02-16T00:31:39;0.80;;;0.80;;
14799;SDS011;7491;57.750;11.970;2024-02-16T00:34:06;0.80;;;0.80;;
14799;SDS011;7491;57.750;11.970;2024-02-16T00:36:32;0.80;;;0.80;;
14799;SDS011;7491;57.750;11.970;2024-02-16T00:39:14;0.60;;;0.60;;
14799;SDS011;7491;57.750;11.970;2024-02-16T00:41:41;0.70;;;0.70;;
14799;SDS011;7491;57.750;11.970;2024-02-16T00:44:12;0.82;;;0.82;;
14799;SDS011;7491;57.750;11.970;2024-02-16T00:46:40;0.70;;;0.70;;
14799;SDS011;7491;57.750;11.970;2024-02-16T00:49:18;2.55;;;0.80;;
14799;SDS011;7491;57.750;11.970;2024-02-16T00:52:04;0.80;;;0.80;;
14799;SDS011;7491;57.750;11.970;2024-02-16T00:54:33;4.57;;;1.00;;
14799;SDS011;7491;57.750;11.970;2024-02-16T00:57:04;0.77;;;0.77;;
14799;SDS011;7491;57.750;11.970;2024-02-16T01:05:30;1.05;;;0.80;;
14799;SDS011;7491;57.750;11.970;2024-02-16T01:11:25;0.60;;;0.60;;
14799;SDS011;7491;57.750;11.970;2024-02-16T01:13:58;0.60;;;0.60;;
14799;SDS011;7491;57.750;11.970;2024-02-16T01:16:45;0.50;;;0.50;;
14799;SDS011;7491;57.750;11.970;2024-02-16T01:19:40;0.60;;;0.60;;
14799;SDS011;7491;57.750;11.970;2024-02-16T01:22:23;1.48;;;0.60;;
14799;SDS011;7491;57.750;11.970;2024-02-16T01:24:54;1.85;;;0.70;;
14799;SDS011;7491;57.750;11.970;2024-02-16T01:27:51;0.68;;;0.68;;
14799;SDS011;7491;57.750;11.970;2024-02-16T01:33:28;4.40;;;0.90;;
14799;SDS011;7491;57.750;11.970;2024-02-16T01:36:10;1.13;;;1.13;;
14799;SDS011;7491;57.750;11.970;2024-02-16T01:39:05;1.58;;;1.48;;
14799;SDS011;7491;57.750;11.970;2024-02-16T02:08:40;3.60;;;3.30;;
14799;SDS011;7491;57.750;11.970;2024-02-16T02:11:08;2.83;;;2.60;;
14799;SDS011;7491;57.750;11.970;2024-02-16T02:13:35;6.93;;;2.60;;
14799;SDS011;7491;57.750;11.970;2024-02-16T02:16:02;2.60;;;2.40;;
14799;SDS011;7491;57.750;11.970;2024-02-16T02:18:32;2.47;;;2.28;;
14799;SDS011;7491;57.750;11.970;2024-02-16T02:20:58;3.13;;;2.40;;
14799;SDS011;7491;57.750;11.970;2024-02-16T02:23:26;2.58;;;2.38;;
14799;SDS011;7491;57.750;11.970;2024-02-16T02:25:53;3.40;;;2.83;;
14799;SDS011;7491;57.750;11.970;2024-02-16T02:28:20;3.53;;;3.22;;
14799;SDS011;7491;57.750;11.970;2024-02-16T02:30:49;2.88;;;2.67;;
14799;SDS011;7491;57.750;11.970;2024-02-16T02:33:15;3.50;;;3.20;;
14799;SDS011;7491;57.750;11.970;2024-02-16T02:35:42;3.60;;;3.30;;
14799;SDS011;7491;57.750;11.970;2024-02-16T02:38:09;4.53;;;3.85;;
14799;SDS011;7491;57.750;11.970;2024-02-16T02:40:37;4.40;;;2.85;;
14799;SDS011;7491;57.750;11.970;2024-02-16T02:43:03;4.45;;;3.40;;
14799;SDS011;7491;57.750;11.970;2024-02-16T02:45:31;4.68;;;3.80;;
14799;SDS011;7491;57.750;11.970;2024-02-16T02:47:57;4.03;;;3.65;;
14799;SDS011;7491;57.750;11.970;2024-02-16T02:50:24;5.22;;;3.80;;
14799;SDS011;7491;57.750;11.970;2024-02-16T02:52:52;3.17;;;2.97;;
14799;SDS011;7491;57.750;11.970;2024-02-16T02:55:18;3.85;;;3.10;;
14799;SDS011;7491;57.750;11.970;2024-02-16T02:57:46;2.72;;;2.53;;
14799;SDS011;7491;57.750;11.970;2024-02-16T03:00:13;2.55;;;2.38;;
14799;SDS011;7491;57.750;11.970;2024-02-16T03:02:40;3.67;;;2.65;;
14799;SDS011;7491;57.750;11.970;2024-02-16T03:05:09;2.95;;;2.67;;
14799;SDS011;7491;57.750;11.970;2024-02-16T03:07:36;3.00;;;2.70;;
14799;SDS011;7491;57.750;11.970;2024-02-16T03:10:03;2.67;;;2.38;;
14799;SDS011;7491;57.750;11.970;2024-02-16T03:12:31;4.03;;;2.70;;
14799;SDS011;7491;57.750;11.970;2024-02-16T03:14:59;3.60;;;2.80;;
14799;SDS011;7491;57.750;11.970;2024-02-16T03:17:26;3.40;;;2.63;;
14799;SDS011;7491;57.750;11.970;2024-02-16T03:19:53;5.43;;;3.10;;
14799;SDS011;7491;57.750;11.970;2024-02-16T03:22:20;4.15;;;3.28;;
14799;SDS011;7491;57.750;11.970;2024-02-16T03:24:46;4.78;;;3.28;;
14799;SDS011;7491;57.750;11.970;2024-02-16T03:27:13;4.47;;;2.92;;
14799;SDS011;7491;57.750;11.970;2024-02-16T03:29:40;4.40;;;3.30;;
14799;SDS011;7491;57.750;11.970;2024-02-16T03:32:08;6.72;;;3.25;;
14799;SDS011;7491;57.750;11.970;2024-02-16T03:34:35;4.85;;;2.67;;
14799;SDS011;7491;57.750;11.970;2024-02-16T03:37:01;4.80;;;3.38;;
14799;SDS011;7491;57.750;11.970;2024-02-16T03:39:28;6.22;;;3.53;;
14799;SDS011;7491;57.750;11.970;2024-02-16T03:41:55;5.38;;;3.70;;
14799;SDS011;7491;57.750;11.970;2024-02-16T03:44:21;9.18;;;5.30;;
14799;SDS011;7491;57.750;11.970;2024-02-16T03:46:48;10.65;;;4.80;;
14799;SDS011;7491;57.750;11.970;2024-02-16T03:49:16;10.07;;;4.95;;
14799;SDS011;7491;57.750;11.970;2024-02-16T03:51:42;18.65;;;6.35;;
14799;SDS011;7491;57.750;11.970;2024-02-16T03:54:09;18.20;;;7.25;;
14799;SDS011;7491;57.750;11.970;2024-02-16T03:56:36;20.48;;;7.10;;
14799;SDS011;7491;57.750;11.970;2024-02-16T03:59:03;22.83;;;6.80;;
14799;SDS011;7491;57.750;11.970;2024-02-16T04:01:30;48.97;;;9.85;;
14799;SDS011;7491;57.750;11.970;2024-02-16T04:03:57;36.00;;;9.35;;
14799;SDS011;7491;57.750;11.970;2024-02-16T04:06:25;39.65;;;9.20;;
14799;SDS011;7491;57.750;11.970;2024-02-16T04:08:51;39.42;;;9.90;;
14799;SDS011;7491;57.750;11.970;2024-02-16T04:11:18;24.77;;;7.40;;
14799;SDS011;7491;57.750;11.970;2024-02-16T04:13:45;27.98;;;8.65;;
14799;SDS011;7491;57.750;11.970;2024-02-16T04:16:11;26.52;;;8.68;;
14799;SDS011;7491;57.750;11.970;2024-02-16T04:18:38;36.85;;;8.43;;
14799;SDS011;7491;57.750;11.970;2024-02-16T04:21:05;29.45;;;9.27;;
14799;SDS011;7491;57.750;11.970;2024-02-16T04:23:33;25.38;;;7.35;;
14799;SDS011;7491;57.750;11.970;2024-02-16T04:25:59;47.05;;;9.48;;
14799;SDS011;7491;57.750;11.970;2024-02-16T04:28:26;63.53;;;10.07;;
14799;SDS011;7491;57.750;11.970;2024-02-16T04:30:53;95.18;;;11.85;;
14799;SDS011;7491;57.750;11.970;2024-02-16T04:33:19;108.28;;;14.13;;
14799;SDS011;7491;57.750;11.970;2024-02-16T04:35:46;160.77;;;15.40;;
14799;SDS011;7491;57.750;11.970;2024-02-16T04:38:15;111.18;;;11.07;;
14799;SDS011;7491;57.750;11.970;2024-02-16T04:40:43;127.07;;;10.93;;
14799;SDS011;7491;57.750;11.970;2024-02-16T04:43:10;99.05;;;10.48;;
14799;SDS011;7491;57.750;11.970;2024-02-16T04:45:37;102.55;;;12.07;;
14799;SDS011;7491;57.750;11.970;2024-02-16T04:48:04;246.85;;;15.13;;
14799;SDS011;7491;57.750;11.970;2024-02-16T04:50:31;149.80;;;13.05;;
14799;SDS011;7491;57.750;11.970;2024-02-16T04:52:58;135.60;;;12.90;;
14799;SDS011;7491;57.750;11.970;2024-02-16T04:55:26;131.68;;;11.32;;
14799;SDS011;7491;57.750;11.970;2024-02-16T04:57:54;164.93;;;12.32;;
14799;SDS011;7491;57.750;11.970;2024-02-16T05:00:21;125.32;;;10.82;;
14799;SDS011;7491;57.750;11.970;2024-02-16T05:02:48;187.55;;;12.55;;
14799;SDS011;7491;57.750;11.970;2024-02-16T05:05:16;135.50;;;11.82;;
14799;SDS011;7491;57.750;11.970;2024-02-16T05:07:46;108.43;;;11.60;;
14799;SDS011;7491;57.750;11.970;2024-02-16T05:10:14;69.47;;;9.65;;
14799;SDS011;7491;57.750;11.970;2024-02-16T05:12:41;71.40;;;9.10;;
14799;SDS011;7491;57.750;11.970;2024-02-16T05:15:09;188.93;;;13.25;;
14799;SDS011;7491;57.750;11.970;2024-02-16T05:17:38;116.10;;;11.40;;
14799;SDS011;7491;57.750;11.970;2024-02-16T05:20:08;68.55;;;9.52;;
14799;SDS011;7491;57.750;11.970;2024-02-16T05:22:40;110.38;;;16.95;;
14799;SDS011;7491;57.750;11.970;2024-02-16T05:25:08;121.53;;;11.68;;
14799;SDS011;7491;57.750;11.970;2024-02-16T05:27:34;68.30;;;10.38;;
14799;SDS011;7491;57.750;11.970;2024-02-16T05:30:02;47.00;;;8.02;;
14799;SDS011;7491;57.750;11.970;2024-02-16T05:32:33;42.30;;;7.45;;
14799;SDS011;7491;57.750;11.970;2024-02-16T05:35:01;42.08;;;8.77;;
14799;SDS011;7491;57.750;11.970;2024-02-16T05:37:29;51.45;;;9.32;;
14799;SDS011;7491;57.750;11.970;2024-02-16T05:39:57;36.22;;;7.75;;
14799;SDS011;7491;57.750;11.970;2024-02-16T05:42:33;39.15;;;7.07;;
14799;SDS011;7491;57.750;11.970;2024-02-16T05:45:00;36.90;;;7.25;;
14799;SDS011;7491;57.750;11.970;2024-02-16T05:47:27;42.00;;;10.90;;
14799;SDS011;7491;57.750;11.970;2024-02-16T05:49:55;46.35;;;8.20;;
14799;SDS011;7491;57.750;11.970;2024-02-16T05:52:23;42.05;;;8.77;;
14799;SDS011;7491;57.750;11.970;2024-02-16T05:54:50;47.35;;;8.30;;
14799;SDS011;7491;57.750;11.970;2024-02-16T05:57:18;32.33;;;7.90;;
14799;SDS011;7491;57.750;11.970;2024-02-16T05:59:44;39.33;;;7.15;;
14799;SDS011;7491;57.750;11.970;2024-02-16T06:02:11;42.17;;;7.95;;
14799;SDS011;7491;57.750;11.970;2024-02-16T06:04:38;35.67;;;7.53;;
14799;SDS011;7491;57.750;11.970;2024-02-16T06:07:06;42.83;;;8.60;;
14799;SDS011;7491;57.750;11.970;2024-02-16T06:09:33;36.53;;;7.57;;
14799;SDS011;7491;57.750;11.970;2024-02-16T06:12:00;40.00;;;10.00;;
14799;SDS011;7491;57.750;11.970;2024-02-16T06:14:29;48.28;;;9.55;;
14799;SDS011;7491;57.750;11.970;2024-02-16T06:16:56;33.58;;;9.80;;
14799;SDS011;7491;57.750;11.970;2024-02-16T06:19:23;28.55;;;8.68;;
14799;SDS011;7491;57.750;11.970;2024-02-16T06:21:50;23.20;;;7.20;;
14799;SDS011;7491;57.750;11.970;2024-02-16T06:24:18;16.73;;;6.90;;
14799;SDS011;7491;57.750;11.970;2024-02-16T06:26:44;17.88;;;7.75;;
14799;SDS011;7491;57.750;11.970;2024-02-16T06:29:11;19.73;;;7.18;;
14799;SDS011;7491;57.750;11.970;2024-02-16T06:31:39;21.00;;;7.13;;
14799;SDS011;7491;57.750;11.970;2024-02-16T06:34:05;21.50;;;7.75;;
14799;SDS011;7491;57.750;11.970;2024-02-16T06:36:33;17.17;;;7.40;;
14799;SDS011;7491;57.750;11.970;2024-02-16T06:39:00;15.68;;;6.93;;
14799;SDS011;7491;57.750;11.970;2024-02-16T06:41:29;10.55;;;5.55;;
14799;SDS011;7491;57.750;11.970;2024-02-16T06:43:56;15.50;;;6.70;;
14799;SDS011;7491;57.750;11.970;2024-02-16T06:46:22;7.07;;;4.60;;
14799;SDS011;7491;57.750;11.970;2024-02-16T06:48:50;9.93;;;5.18;;
14799;SDS011;7491;57.750;11.970;2024-02-16T06:51:17;10.20;;;5.88;;
14799;SDS011;7491;57.750;11.970;2024-02-16T06:53:44;10.50;;;5.78;;
14799;SDS011;7491;57.750;11.970;2024-02-16T06:56:11;8.23;;;4.72;;
14799;SDS011;7491;57.750;11.970;2024-02-16T06:58:39;6.60;;;4.28;;
14799;SDS011;7491;57.750;11.970;2024-02-16T07:01:07;7.90;;;4.38;;
14799;SDS011;7491;57.750;11.970;2024-02-16T07:03:34;7.95;;;4.43;;
14799;SDS011;7491;57.750;11.970;2024-02-16T07:06:01;6.68;;;4.00;;
14799;SDS011;7491;57.750;11.970;2024-02-16T07:08:29;6.70;;;4.22;;
14799;SDS011;7491;57.750;11.970;2024-02-16T07:10:55;8.57;;;4.85;;
14799;SDS011;7491;57.750;11.970;2024-02-16T07:13:22;9.43;;;5.10;;
14799;SDS011;7491;57.750;11.970;2024-02-16T07:15:50;9.82;;;6.30;;
14799;SDS011;7491;57.750;11.970;2024-02-16T07:18:17;14.93;;;6.90;;
14799;SDS011;7491;57.750;11.970;2024-02-16T07:20:44;18.30;;;8.93;;
14799;SDS011;7491;57.750;11.970;2024-02-16T07:23:10;22.85;;;11.55;;
14799;SDS011;7491;57.750;11.970;2024-02-16T07:25:37;28.85;;;12.30;;
14799;SDS011;7491;57.750;11.970;2024-02-16T07:28:04;27.58;;;12.32;;
14799;SDS011;7491;57.750;11.970;2024-02-16T07:30:31;29.52;;;13.88;;
14799;SDS011;7491;57.750;11.970;2024-02-16T07:32:59;31.63;;;13.15;;
14799;SDS011;7491;57.750;11.970;2024-02-16T07:35:26;35.83;;;14.13;;
14799;SDS011;7491;57.750;11.970;2024-02-16T07:37:52;25.15;;;12.20;;
14799;SDS011;7491;57.750;11.970;2024-02-16T07:40:19;29.33;;;13.82;;
14799;SDS011;7491;57.750;11.970;2024-02-16T07:42:46;25.73;;;13.05;;
14799;SDS011;7491;57.750;11.970;2024-02-16T07:45:13;16.60;;;7.72;;
14799;SDS011;7491;57.750;11.970;2024-02-16T07:47:40;29.83;;;13.18;;
14799;SDS011;7491;57.750;11.970;2024-02-16T07:50:09;21.75;;;11.07;;
14799;SDS011;7491;57.750;11.970;2024-02-16T07:52:37;29.02;;;11.68;;
14799;SDS011;7491;57.750;11.970;2024-02-16T07:55:04;26.20;;;11.70;;
14799;SDS011;7491;57.750;11.970;2024-02-16T07:57:31;27.95;;;12.75;;
14799;SDS011;7491;57.750;11.970;2024-02-16T07:59:59;29.50;;;12.63;;
14799;SDS011;7491;57.750;11.970;2024-02-16T08:02:26;23.75;;;11.65;;
14799;SDS011;7491;57.750;11.970;2024-02-16T08:04:52;20.77;;;10.07;;
14799;SDS011;7491;57.750;11.970;2024-02-16T08:07:20;22.27;;;11.75;;
14799;SDS011;7491;57.750;11.970;2024-02-16T08:09:47;19.17;;;9.48;;
14799;SDS011;7491;57.750;11.970;2024-02-16T08:12:14;20.17;;;10.57;;
14799;SDS011;7491;57.750;11.970;2024-02-16T08:14:41;23.98;;;11.25;;
14799;SDS011;7491;57.750;11.970;2024-02-16T08:17:08;20.40;;;11.00;;
14799;SDS011;7491;57.750;11.970;2024-02-16T08:19:36;20.45;;;12.20;;
14799;SDS011;7491;57.750;11.970;2024-02-16T08:22:03;21.75;;;11.50;;
14799;SDS011;7491;57.750;11.970;2024-02-16T08:24:34;22.63;;;11.77;;
14799;SDS011;7491;57.750;11.970;2024-02-16T08:27:01;22.17;;;11.98;;
14799;SDS011;7491;57.750;11.970;2024-02-16T08:29:29;20.33;;;11.52;;
14799;SDS011;7491;57.750;11.970;2024-02-16T08:31:56;20.88;;;11.82;;
14799;SDS011;7491;57.750;11.970;2024-02-16T08:34:23;19.67;;;10.85;;
14799;SDS011;7491;57.750;11.970;2024-02-16T08:36:51;22.27;;;11.65;;
14799;SDS011;7491;57.750;11.970;2024-02-16T08:39:18;24.45;;;12.18;;
14799;SDS011;7491;57.750;11.970;2024-02-16T08:41:46;38.58;;;13.02;;
14799;SDS011;7491;57.750;11.970;2024-02-16T08:44:13;19.77;;;11.45;;
14799;SDS011;7491;57.750;11.970;2024-02-16T08:46:40;24.05;;;13.20;;
14799;SDS011;7491;57.750;11.970;2024-02-16T08:49:07;19.38;;;12.25;;
14799;SDS011;7491;57.750;11.970;2024-02-16T08:51:34;23.02;;;11.55;;
14799;SDS011;7491;57.750;11.970;2024-02-16T08:54:01;27.58;;;12.45;;
14799;SDS011;7491;57.750;11.970;2024-02-16T08:56:29;20.85;;;12.25;;
14799;SDS011;7491;57.750;11.970;2024-02-16T08:58:58;22.58;;;12.65;;
14799;SDS011;7491;57.750;11.970;2024-02-16T09:01:31;25.27;;;14.38;;
14799;SDS011;7491;57.750;11.970;2024-02-16T09:03:57;20.52;;;11.55;;
14799;SDS011;7491;57.750;11.970;2024-02-16T09:06:24;25.75;;;14.18;;
14799;SDS011;7491;57.750;11.970;2024-02-16T09:08:51;20.38;;;13.88;;
14799;SDS011;7491;57.750;11.970;2024-02-16T09:11:18;23.83;;;12.75;;
14799;SDS011;7491;57.750;11.970;2024-02-16T09:13:44;23.63;;;14.90;;
14799;SDS011;7491;57.750;11.970;2024-02-16T09:16:13;21.42;;;13.45;;
14799;SDS011;7491;57.750;11.970;2024-02-16T09:18:40;21.52;;;14.45;;
14799;SDS011;7491;57.750;11.970;2024-02-16T09:21:06;24.35;;;12.98;;
14799;SDS011;7491;57.750;11.970;2024-02-16T09:23:33;27.98;;;13.30;;
14799;SDS011;7491;57.750;11.970;2024-02-16T09:26:01;21.60;;;12.88;;
14799;SDS011;7491;57.750;11.970;2024-02-16T09:28:28;20.95;;;11.77;;
14799;SDS011;7491;57.750;11.970;2024-02-16T09:30:55;22.35;;;13.18;;
14799;SDS011;7491;57.750;11.970;2024-02-16T09:33:24;19.38;;;13.00;;
14799;SDS011;7491;57.750;11.970;2024-02-16T09:35:52;20.48;;;13.60;;
14799;SDS011;7491;57.750;11.970;2024-02-16T09:38:18;24.05;;;14.30;;
14799;SDS011;7491;57.750;11.970;2024-02-16T09:40:45;26.27;;;14.27;;
14799;SDS011;7491;57.750;11.970;2024-02-16T09:43:21;26.40;;;14.02;;
14799;SDS011;7491;57.750;11.970;2024-02-16T09:45:52;22.15;;;12.68;;
14799;SDS011;7491;57.750;11.970;2024-02-16T09:48:19;25.73;;;14.07;;
14799;SDS011;7491;57.750;11.970;2024-02-16T09:50:48;24.27;;;13.73;;
14799;SDS011;7491;57.750;11.970;2024-02-16T09:53:16;22.40;;;12.52;;
14799;SDS011;7491;57.750;11.970;2024-02-16T09:55:46;31.08;;;13.82;;
14799;SDS011;7491;57.750;11.970;2024-02-16T09:58:14;24.58;;;13.43;;
14799;SDS011;7491;57.750;11.970;2024-02-16T10:00:47;25.80;;;14.82;;
14799;SDS011;7491;57.750;11.970;2024-02-16T10:03:21;22.23;;;13.48;;
14799;SDS011;7491;57.750;11.970;2024-02-16T10:05:52;26.42;;;14.93;;
14799;SDS011;7491;57.750;11.970;2024-02-16T10:08:29;26.13;;;14.63;;
14799;SDS011;7491;57.750;11.970;2024-02-16T10:11:00;32.28;;;16.40;;
14799;SDS011;7491;57.750;11.970;2024-02-16T10:13:28;26.10;;;15.38;;
14799;SDS011;7491;57.750;11.970;2024-02-16T10:16:03;33.65;;;21.58;;
14799;SDS011;7491;57.750;11.970;2024-02-16T10:18:31;32.00;;;17.77;;
14799;SDS011;7491;57.750;11.970;2024-02-16T10:20:59;36.58;;;20.45;;
14799;SDS011;7491;57.750;11.970;2024-02-16T10:23:26;34.75;;;15.57;;
14799;SDS011;7491;57.750;11.970;2024-02-16T10:25:53;30.33;;;17.13;;
14799;SDS011;7491;57.750;11.970;2024-02-16T10:28:20;33.58;;;18.42;;
14799;SDS011;7491;57.750;11.970;2024-02-16T10:30:53;28.48;;;17.05;;
14799;SDS011;7491;57.750;11.970;2024-02-16T10:33:23;36.80;;;17.40;;
14799;SDS011;7491;57.750;11.970;2024-02-16T10:35:50;33.63;;;16.92;;
14799;SDS011;7491;57.750;11.970;2024-02-16T10:38:20;37.45;;;19.30;;
14799;SDS011;7491;57.750;11.970;2024-02-16T10:40:47;35.42;;;17.40;;
14799;SDS011;7491;57.750;11.970;2024-02-16T10:43:17;37.40;;;18.65;;
14799;SDS011;7491;57.750;11.970;2024-02-16T10:45:44;34.58;;;18.65;;
14799;SDS011;7491;57.750;11.970;2024-02-16T10:48:12;30.10;;;17.55;;
14799;SDS011;7491;57.750;11.970;2024-02-16T10:50:40;33.92;;;18.50;;
14799;SDS011;7491;57.750;11.970;2024-02-16T10:53:09;30.33;;;16.83;;
14799;SDS011;7491;57.750;11.970;2024-02-16T10:55:41;38.72;;;19.63;;
14799;SDS011;7491;57.750;11.970;2024-02-16T10:58:09;34.58;;;18.33;;
14799;SDS011;7491;57.750;11.970;2024-02-16T11:00:47;28.50;;;17.27;;
14799;SDS011;7491;57.750;11.970;2024-02-16T11:03:16;27.77;;;17.65;;
14799;SDS011;7491;57.750;11.970;2024-02-16T11:05:43;29.45;;;18.13;;
14799;SDS011;7491;57.750;11.970;2024-02-16T11:08:11;31.25;;;17.00;;
14799;SDS011;7491;57.750;11.970;2024-02-16T11:10:41;35.13;;;18.42;;
14799;SDS011;7491;57.750;11.970;2024-02-16T11:13:08;30.35;;;14.93;;
14799;SDS011;7491;57.750;11.970;2024-02-16T11:15:34;32.55;;;18.42;;
14799;SDS011;7491;57.750;11.970;2024-02-16T11:18:03;31.80;;;17.95;;
14799;SDS011;7491;57.750;11.970;2024-02-16T11:20:36;31.83;;;16.90;;
14799;SDS011;7491;57.750;11.970;2024-02-16T11:23:05;27.98;;;18.27;;
14799;SDS011;7491;57.750;11.970;2024-02-16T11:25:32;31.90;;;17.88;;
14799;SDS011;7491;57.750;11.970;2024-02-16T11:28:01;37.63;;;22.23;;
14799;SDS011;7491;57.750;11.970;2024-02-16T11:30:28;33.38;;;18.90;;
14799;SDS011;7491;57.750;11.970;2024-02-16T11:32:54;32.75;;;18.83;;
14799;SDS011;7491;57.750;11.970;2024-02-16T11:35:21;27.27;;;16.52;;
14799;SDS011;7491;57.750;11.970;2024-02-16T11:37:48;31.80;;;17.88;;
14799;SDS011;7491;57.750;11.970;2024-02-16T11:40:15;32.30;;;17.00;;
14799;SDS011;7491;57.750;11.970;2024-02-16T11:42:41;34.42;;;19.38;;
14799;SDS011;7491;57.750;11.970;2024-02-16T11:45:13;30.27;;;16.23;;
14799;SDS011;7491;57.750;11.970;2024-02-16T11:47:40;32.42;;;17.17;;
14799;SDS011;7491;57.750;11.970;2024-02-16T11:50:08;27.88;;;16.67;;
14799;SDS011;7491;57.750;11.970;2024-02-16T11:52:36;35.17;;;18.83;;
14799;SDS011;7491;57.750;11.970;2024-02-16T11:55:03;33.13;;;17.98;;
14799;SDS011;7491;57.750;11.970;2024-02-16T11:57:30;35.45;;;19.27;;
14799;SDS011;7491;57.750;11.970;2024-02-16T11:59:56;27.48;;;17.35;;
14799;SDS011;7491;57.750;11.970;2024-02-16T12:02:25;31.10;;;16.48;;
14799;SDS011;7491;57.750;11.970;2024-02-16T12:04:57;28.30;;;15.70;;
14799;SDS011;7491;57.750;11.970;2024-02-16T12:07:25;31.77;;;18.48;;
14799;SDS011;7491;57.750;11.970;2024-02-16T12:09:56;33.30;;;16.58;;
14799;SDS011;7491;57.750;11.970;2024-02-16T12:12:24;26.65;;;16.73;;
14799;SDS011;7491;57.750;11.970;2024-02-16T12:14:50;30.98;;;15.80;;
14799;SDS011;7491;57.750;11.970;2024-02-16T12:17:18;27.25;;;14.93;;
14799;SDS011;7491;57.750;11.970;2024-02-16T12:19:47;28.42;;;15.82;;
14799;SDS011;7491;57.750;11.970;2024-02-16T12:22:16;28.08;;;15.40;;
14799;SDS011;7491;57.750;11.970;2024-02-16T12:24:44;25.65;;;15.50;;
14799;SDS011;7491;57.750;11.970;2024-02-16T12:27:10;31.95;;;16.45;;
14799;SDS011;7491;57.750;11.970;2024-02-16T12:29:38;25.20;;;16.60;;
14799;SDS011;7491;57.750;11.970;2024-02-16T12:32:05;25.15;;;16.60;;
14799;SDS011;7491;57.750;11.970;2024-02-16T12:34:34;25.00;;;15.77;;
14799;SDS011;7491;57.750;11.970;2024-02-16T12:37:05;26.20;;;15.75;;
14799;SDS011;7491;57.750;11.970;2024-02-16T12:39:33;26.85;;;16.83;;
14799;SDS011;7491;57.750;11.970;2024-02-16T12:42:00;28.92;;;17.58;;
14799;SDS011;7491;57.750;11.970;2024-02-16T12:44:26;30.15;;;18.23;;
14799;SDS011;7491;57.750;11.970;2024-02-16T12:46:53;24.95;;;15.77;;
14799;SDS011;7491;57.750;11.970;2024-02-16T12:49:20;30.42;;;18.38;;
14799;SDS011;7491;57.750;11.970;2024-02-16T12:51:47;26.58;;;16.90;;
14799;SDS011;7491;57.750;11.970;2024-02-16T12:54:16;24.50;;;16.38;;
14799;SDS011;7491;57.750;11.970;2024-02-16T12:56:44;25.23;;;14.52;;
14799;SDS011;7491;57.750;11.970;2024-02-16T12:59:11;27.40;;;16.23;;
14799;SDS011;7491;57.750;11.970;2024-02-16T13:01:37;27.30;;;14.57;;
14799;SDS011;7491;57.750;11.970;2024-02-16T13:04:05;22.30;;;14.50;;
14799;SDS011;7491;57.750;11.970;2024-02-16T13:06:32;23.50;;;14.30;;
14799;SDS011;7491;57.750;11.970;2024-02-16T13:08:58;22.40;;;12.80;;
14799;SDS011;7491;57.750;11.970;2024-02-16T13:11:27;21.48;;;13.30;;
14799;SDS011;7491;57.750;11.970;2024-02-16T13:13:54;20.98;;;13.63;;
14799;SDS011;7491;57.750;11.970;2024-02-16T13:16:20;23.27;;;13.27;;
14799;SDS011;7491;57.750;11.970;2024-02-16T13:18:47;16.65;;;11.57;;
14799;SDS011;7491;57.750;11.970;2024-02-16T13:21:14;25.15;;;14.45;;
14799;SDS011;7491;57.750;11.970;2024-02-16T13:23:41;18.75;;;13.55;;
14799;SDS011;7491;57.750;11.970;2024-02-16T13:26:07;25.83;;;13.93;;
14799;SDS011;7491;57.750;11.970;2024-02-16T13:28:35;21.05;;;13.60;;
14799;SDS011;7491;57.750;11.970;2024-02-16T13:31:02;21.35;;;13.57;;
14799;SDS011;7491;57.750;11.970;2024-02-16T13:33:29;22.60;;;12.93;;
14799;SDS011;7491;57.750;11.970;2024-02-16T13:35:56;17.65;;;11.25;;
14799;SDS011;7491;57.750;11.970;2024-02-16T13:38:23;19.98;;;12.50;;
14799;SDS011;7491;57.750;11.970;2024-02-16T13:40:50;14.75;;;10.68;;
14799;SDS011;7491;57.750;11.970;2024-02-16T13:43:17;17.70;;;10.52;;
14799;SDS011;7491;57.750;11.970;2024-02-16T13:45:51;14.25;;;10.45;;
14799;SDS011;7491;57.750;11.970;2024-02-16T13:48:19;13.15;;;9.77;;
14799;SDS011;7491;57.750;11.970;2024-02-16T13:50:46;13.65;;;9.07;;
14799;SDS011;7491;57.750;11.970;2024-02-16T13:53:13;11.70;;;9.15;;
14799;SDS011;7491;57.750;11.970;2024-02-16T13:55:40;12.52;;;8.68;;
14799;SDS011;7491;57.750;11.970;2024-02-16T13:58:08;11.70;;;8.40;;
14799;SDS011;7491;57.750;11.970;2024-02-16T14:00:34;12.02;;;8.98;;
14799;SDS011;7491;57.750;11.970;2024-02-16T14:03:03;10.68;;;8.45;;
14799;SDS011;7491;57.750;11.970;2024-02-16T14:05:30;11.55;;;7.88;;
14799;SDS011;7491;57.750;11.970;2024-02-16T14:07:57;12.98;;;7.88;;
14799;SDS011;7491;57.750;11.970;2024-02-16T14:10:24;12.50;;;9.35;;
14799;SDS011;7491;57.750;11.970;2024-02-16T14:12:50;10.85;;;8.45;;
14799;SDS011;7491;57.750;11.970;2024-02-16T14:15:17;16.67;;;10.75;;
14799;SDS011;7491;57.750;11.970;2024-02-16T14:17:44;15.50;;;10.20;;
14799;SDS011;7491;57.750;11.970;2024-02-16T14:20:12;15.30;;;10.15;;
14799;SDS011;7491;57.750;11.970;2024-02-16T14:22:39;13.98;;;8.98;;
14799;SDS011;7491;57.750;11.970;2024-02-16T14:25:06;13.52;;;10.57;;
14799;SDS011;7491;57.750;11.970;2024-02-16T14:27:35;17.83;;;12.23;;
14799;SDS011;7491;57.750;11.970;2024-02-16T14:30:02;21.77;;;12.48;;
14799;SDS011;7491;57.750;11.970;2024-02-16T14:32:29;18.40;;;12.98;;
14799;SDS011;7491;57.750;11.970;2024-02-16T14:34:56;19.35;;;12.73;;
14799;SDS011;7491;57.750;11.970;2024-02-16T14:37:24;20.33;;;13.65;;
14799;SDS011;7491;57.750;11.970;2024-02-16T14:39:53;22.52;;;11.68;;
14799;SDS011;7491;57.750;11.970;2024-02-16T14:42:22;19.42;;;13.68;;
14799;SDS011;7491;57.750;11.970;2024-02-16T14:44:49;15.43;;;12.38;;
14799;SDS011;7491;57.750;11.970;2024-02-16T14:47:16;16.35;;;11.13;;
14799;SDS011;7491;57.750;11.970;2024-02-16T14:49:43;18.55;;;12.93;;
14799;SDS011;7491;57.750;11.970;2024-02-16T14:52:09;18.02;;;13.05;;
14799;SDS011;7491;57.750;11.970;2024-02-16T14:54:38;21.75;;;14.35;;
14799;SDS011;7491;57.750;11.970;2024-02-16T14:57:04;17.33;;;10.77;;
14799;SDS011;7491;57.750;11.970;2024-02-16T14:59:31;19.60;;;13.85;;
14799;SDS011;7491;57.750;11.970;2024-02-16T15:01:58;19.38;;;12.65;;
14799;SDS011;7491;57.750;11.970;2024-02-16T15:04:26;18.52;;;13.93;;
14799;SDS011;7491;57.750;11.970;2024-02-16T15:06:53;18.38;;;12.18;;
14799;SDS011;7491;57.750;11.970;2024-02-16T15:09:19;18.98;;;12.70;;
14799;SDS011;7491;57.750;11.970;2024-02-16T15:11:47;18.95;;;12.35;;
14799;SDS011;7491;57.750;11.970;2024-02-16T15:14:14;20.92;;;14.25;;